createdAt,value
2022-09-23T00:02:18.301Z,24.10
2022-09-23T00:12:20.445Z,29.63
2022-09-23T00:22:22.520Z,22.55
2022-09-23T00:32:24.486Z,28.30
2022-09-23T00:42:26.288Z,38.42
2022-09-23T00:52:29.249Z,37.75
2022-09-23T01:02:31.367Z,26.05
2022-09-23T01:13:04.398Z,28.58
2022-09-23T01:23:28.862Z,28.73
2022-09-23T01:33:35.836Z,34.65
2022-09-23T01:44:02.829Z,26.40
2022-09-23T01:54:15.135Z,30.73
2022-09-23T02:04:24.843Z,29.08
2022-09-23T02:14:33.349Z,22.65
2022-09-23T02:24:38.985Z,23.40
2022-09-23T02:34:43.977Z,24.92
2022-09-23T02:44:45.965Z,19.45
2022-09-23T02:54:47.964Z,22.35
2022-09-23T03:05:08.541Z,18.30
2022-09-23T03:15:36.302Z,21.85
2022-09-23T03:25:40.938Z,27.23
2022-09-23T03:36:13.929Z,25.73
2022-09-23T03:46:16.118Z,23.58
2022-09-23T03:56:18.438Z,29.20
2022-09-23T04:06:21.980Z,16.83
2022-09-23T04:16:24.095Z,19.23
2022-09-23T04:26:26.024Z,17.83
2022-09-23T04:36:28.414Z,17.30
2022-09-23T04:46:30.332Z,18.25
2022-09-23T04:56:35.543Z,13.57
2022-09-23T05:06:37.458Z,11.50
2022-09-23T05:16:39.462Z,18.38
2022-09-23T05:26:41.625Z,19.98
2022-09-23T05:36:43.589Z,26.05
2022-09-23T05:46:45.567Z,11.73
2022-09-23T05:56:47.587Z,13.32
2022-09-23T06:06:49.417Z,12.65
2022-09-23T06:16:51.253Z,15.80
2022-09-23T06:26:53.206Z,66.55
2022-09-23T06:36:54.971Z,22.42
2022-09-23T06:46:56.870Z,19.92
2022-09-23T06:56:58.787Z,13.63
2022-09-23T07:07:00.621Z,17.05
2022-09-23T07:17:02.555Z,18.52
2022-09-23T07:27:04.458Z,21.00
2022-09-23T07:37:06.408Z,28.20
2022-09-23T07:47:08.189Z,17.60
2022-09-23T07:57:10.053Z,16.48
2022-09-23T08:07:13.077Z,19.23
2022-09-23T08:17:14.995Z,17.30
2022-09-23T08:27:16.781Z,12.15
2022-09-23T08:37:18.688Z,11.57
2022-09-23T08:47:25.062Z,13.13
2022-09-23T08:57:39.006Z,12.05
2022-09-23T09:07:41.826Z,18.25
2022-09-23T09:18:07.282Z,12.93
2022-09-23T09:28:30.963Z,12.63
2022-09-23T09:38:32.888Z,10.48
2022-09-23T09:49:03.046Z,6.75
2022-09-23T09:59:16.508Z,6.38
2022-09-23T10:09:18.632Z,7.72
2022-09-23T10:19:28.971Z,18.73
2022-09-23T10:29:33.701Z,3.20
2022-09-23T10:39:35.757Z,5.70
2022-09-23T10:49:56.574Z,5.30
2022-09-23T11:00:18.721Z,3.50
2022-09-23T11:10:44.963Z,12.18
2022-09-23T11:20:53.931Z,6.15
2022-09-23T11:30:59.486Z,7.00
2022-09-23T11:41:16.934Z,3.00
2022-09-23T11:51:40.175Z,4.45
2022-09-23T12:01:57.887Z,15.88
2022-09-23T12:12:34.162Z,2.08
2022-09-23T12:23:00.394Z,4.22
2022-09-23T12:33:27.014Z,3.50
2022-09-23T12:43:34.325Z,2.65
2022-09-23T12:53:36.183Z,3.33
2022-09-23T13:03:45.563Z,3.25
2022-09-23T13:24:12.562Z,5.45
2022-09-23T13:34:18.458Z,4.57
2022-09-23T13:44:21.126Z,11.15
2022-09-23T13:54:34.722Z,5.45
2022-09-23T14:04:36.951Z,8.77
2022-09-23T14:14:40.666Z,6.15
2022-09-23T14:24:42.603Z,3.00
2022-09-23T14:34:47.371Z,7.60
2022-09-23T14:44:49.963Z,2.95
2022-09-23T14:54:52.080Z,4.82
2022-09-23T15:05:08.346Z,2.92
2022-09-23T15:15:13.549Z,3.75
2022-09-23T15:25:20.102Z,2.35
2022-09-23T15:35:24.316Z,1.48
2022-09-23T15:45:36.216Z,4.35
2022-09-23T15:55:38.192Z,2.50
2022-09-23T16:05:43.819Z,4.95
2022-09-23T16:15:45.721Z,5.95
2022-09-23T16:25:47.654Z,4.00
2022-09-23T16:35:49.951Z,7.88
2022-09-23T16:45:51.817Z,5.57
2022-09-23T16:55:53.767Z,7.57
2022-09-23T17:05:55.694Z,13.88
2022-09-23T17:15:57.629Z,17.63
2022-09-23T17:26:00.103Z,27.25
2022-09-23T17:36:06.351Z,27.40
2022-09-23T17:46:13.483Z,45.85
2022-09-23T17:56:20.964Z,33.85
2022-09-23T18:06:24.703Z,47.95
2022-09-23T18:16:29.463Z,46.03
2022-09-23T18:26:31.287Z,102.15
2022-09-23T18:36:34.267Z,87.70
2022-09-23T18:46:36.097Z,126.65
2022-09-23T18:56:42.609Z,92.03
2022-09-23T19:06:44.900Z,72.97
2022-09-23T19:16:46.974Z,92.28
2022-09-23T19:26:49.047Z,98.55
2022-09-23T19:47:56.263Z,110.60
2022-09-23T19:57:58.236Z,162.07
2022-09-23T20:08:00.170Z,151.65
2022-09-23T20:18:02.521Z,179.82
2022-09-23T20:28:04.509Z,138.68
2022-09-23T20:38:08.163Z,103.95
2022-09-23T20:48:10.149Z,118.68
2022-09-23T20:58:12.156Z,112.13
2022-09-23T21:08:17.016Z,120.85
2022-09-23T21:18:22.383Z,135.85
2022-09-23T21:28:24.627Z,127.15
2022-09-23T21:38:27.771Z,110.35
2022-09-23T21:48:31.696Z,67.00
2022-09-23T21:58:35.207Z,68.65
2022-09-23T22:08:40.906Z,81.97
2022-09-23T22:18:42.739Z,68.30
2022-09-23T22:28:44.594Z,75.45
2022-09-23T22:39:05.031Z,69.85
2022-09-23T22:49:06.804Z,90.97
2022-09-23T22:59:10.667Z,69.20
2022-09-23T23:09:17.453Z,76.50
2022-09-23T23:19:19.445Z,70.57
2022-09-23T23:29:22.174Z,69.63
2022-09-23T23:39:25.185Z,60.35
2022-09-23T23:49:27.631Z,58.95
2022-09-23T23:59:29.961Z,49.90
